Flight Track Log - Related Links

Times and Time Zones

All times are in EDT time to prevent confusion due to time zone crossing. See the UPS1337 flight status page for this flight to view local times or setup timezone preferences in your user account.

Time Position Orientation Groundspeed Altitude Reporting Facility
EDT Latitude Longitude Course Direction KTS MPH feet Rate Location/Type
Thu 09:56:12 PM 27.8740 -82.6820 171° South 165 190 2,100  Level FlightAware
Thu 09:56:44 PM 27.8480 -82.6780 172° South 184 212 3,400 2,250 Climbing FlightAware
Thu 09:56:52 PM 27.8410 -82.6770 173° South 197 227 3,600 1,350 Climbing FlightAware
Thu 09:57:24 PM 27.8170 -82.7000 220° Southwest 260 299 4,300 1,463 Climbing FlightAware
Thu 09:57:33 PM 27.8150 -82.7110 258° West 271 312 4,600 3,273 Climbing FlightAware
Thu 09:58:08 PM 27.8370 -82.7550 299° West 295 339 6,700 3,661 Climbing FlightAware
Thu 09:58:32 PM 27.8690 -82.7640 346° North 303 349 8,200 3,556 Climbing FlightAware
Thu 09:59:02 PM 27.9120 -82.7650 359° North 306 352 9,900 2,600 Climbing FlightAware
Thu 09:59:32 PM 27.9550 -82.7660 359° North 336 387 10,800 1,552 Climbing FlightAware
Thu 10:00:00 PM 28.0020 -82.7680 358° North 369 425 11,400 1,909 Climbing FlightAware
Thu 10:01:00 PM 28.1130 -82.7730 358° North 408 470 13,600 2,333 Climbing FlightAware
Thu 10:01:48 PM 28.2040 -82.7780 357° North 420 483 15,600 2,340 Climbing FlightAware
Thu 10:02:40 PM 28.3060 -82.7830 358° North 437 503 17,500 2,323 Climbing FlightAware
Thu 10:03:21 PM 28.3860 -82.7860 358° North 443 510 19,200 2,182 Climbing FlightAware
Thu 10:04:08 PM 28.4870 -82.7900 358° North 458 527 20,700 2,020 Climbing FlightAware
Thu 10:05:02 PM 28.6040 -82.7960 357° North 467 537 22,600 1,944 Climbing FlightAware
Thu 10:05:56 PM 28.7220 -82.8000 358° North 476 548 24,200 1,769 Climbing FlightAware
Thu 10:06:20 PM 28.7730 -82.8020 358° North 478 550 24,900 1,770 Climbing FlightAware
Thu 10:06:57 PM 28.8540 -82.8320 342° North 474 545 26,000 2,000 Climbing FlightAware
Thu 10:07:47 PM 28.9420 -82.9080 323° Northwest 465 535 27,800 2,114 Climbing FlightAware
Thu 10:08:42 PM 29.0330 -82.9890 322° Northwest 456 525 29,700 1,975 Climbing FlightAware
Thu 10:09:06 PM 29.0730 -83.0250 322° Northwest 454 522 30,400 1,725 Climbing FlightAware
Thu 10:10:02 PM 29.1650 -83.1080 322° Northwest 448 516 32,000 1,371 Climbing FlightAware
Thu 10:10:51 PM 29.2450 -83.1790 322° Northwest 446 513 32,800 1,081 Climbing FlightAware
Thu 10:11:53 PM 29.3450 -83.2700 322° Northwest 445 512 34,000 605 Climbing FlightAware
Thu 10:12:50 PM 29.4380 -83.3530 322° Northwest 446 513 34,000  Level FlightAware
Thu 10:13:42 PM 29.5220 -83.4280 322° Northwest 443 510 34,000  Level FlightAware
Thu 10:14:31 PM 29.6020 -83.5010 322° Northwest 442 509 34,000  Level FlightAware
Thu 10:15:15 PM 29.6720 -83.5650 322° Northwest 445 512 34,000  Level FlightAware
Thu 10:15:35 PM 29.7040 -83.5940 322° Northwest 446 513 34,000  Level FlightAware
Thu 10:16:32 PM 29.7980 -83.6790 322° Northwest 451 519 34,000  Level FlightAware
Thu 10:17:29 PM 29.8920 -83.7640 322° Northwest 453 521 34,000  Level FlightAware
Thu 10:17:53 PM 29.9300 -83.8000 321° Northwest 454 522 34,000  Level FlightAware
Thu 10:18:49 PM 30.0230 -83.8840 322° Northwest 456 525 34,000  Level FlightAware
Thu 10:19:37 PM 30.1030 -83.9570 322° Northwest 457 526 34,000  Level FlightAware
Thu 10:20:38 PM 30.2040 -84.0500 321° Northwest 456 525 34,000  Level FlightAware
Thu 10:21:30 PM 30.2890 -84.1290 321° Northwest 456 525 34,000  Level FlightAware
Thu 10:22:09 PM 30.3530 -84.1880 322° Northwest 454 522 34,000  Level FlightAware
Thu 10:22:51 PM 30.4197 -84.2492 322° Northwest 455 524 34,000  Level FlightAware
Thu 10:23:22 PM 30.4743 -84.2996 321° Northwest 454 522 34,000  Level FlightAware
Thu 10:23:52 PM 30.5251 -84.3408 325° Northwest 454 522 34,000  Level FlightAware
Thu 10:24:22 PM 30.5795 -84.3754 331° Northwest 455 524 34,000  Level FlightAware
Thu 10:24:42 PM 30.6156 -84.3936 336° Northwest 455 524 34,000  Level FlightAware (KONZ)
Thu 10:25:12 PM 30.6800 -84.4181 342° North 457 526 34,000  Level FlightAware
Thu 10:25:43 PM 30.7430 -84.4376 345° North 462 532 34,000  Level FlightAware
Thu 10:26:22 PM 30.8237 -84.4629 345° North 465 535 34,000  Level FlightAware
Thu 10:26:52 PM 30.8802 -84.4813 344° North 465 535 34,000  Level FlightAware
Thu 10:27:28 PM 30.9392 -84.5005 344° North 464 534 34,000  Level FlightAware
Thu 10:28:28 PM 31.0491 -84.5365 344° North 460 529 34,000  Level FlightAware
Thu 10:30:26 PM 31.3280 -84.6280 344° North 464 534 34,000  Level FlightAware
Thu 10:30:46 PM 31.3710 -84.6420 344° North 463 533 34,000  Level FlightAware
Thu 10:31:49 PM 30.9080 -84.4903 164° South 461 531 34,000  Level FlightAware (KONZ)
Thu 10:32:43 PM 31.6100 -84.7220 344° North 464 534 34,000  Level FlightAware
Thu 10:33:35 PM 31.7180 -84.7570 345° North 463 533 34,000  Level FlightAware
Thu 10:34:10 PM 31.7900 -84.7810 344° North 463 533 34,000  Level FlightAware
Thu 10:34:45 PM 31.8600 -84.8040 344° North 464 534 34,000  Level FlightAware
Thu 10:36:09 PM 32.0360 -84.8630 344° North 468 539 34,000  Level FlightAware
Thu 10:36:56 PM 32.1360 -84.8970 344° North 470 541 34,000  Level FlightAware
Thu 10:37:28 PM 32.2020 -84.9190 344° North 471 542 34,000  Level FlightAware
Thu 10:38:16 PM 32.3040 -84.9530 344° North 471 542 34,000  Level FlightAware
Thu 10:38:41 PM 32.3490 -84.9690 343° North 471 542 34,000  Level FlightAware
Thu 10:39:11 PM 32.4190 -84.9920 344° North 471 542 34,000  Level FlightAware
Thu 10:39:57 PM 32.5120 -85.0230 344° North 482 555 34,000  Level FlightAware
Thu 10:40:17 PM 32.5530 -85.0380 343° North 472 543 34,000  Level FlightAware
Thu 10:41:37 PM 32.7170 -85.0930 344° North 475 547 34,000  Level FlightAware
Thu 10:42:07 PM 32.7870 -85.1170 344° North 476 548 34,000  Level FlightAware
Thu 10:43:02 PM 32.8980 -85.1550 344° North 474 545 34,000  Level FlightAware
Thu 10:44:02 PM 33.0270 -85.1990 344° North 474 545 34,000  Level FlightAware
Thu 10:44:37 PM 33.1040 -85.2320 340° North 468 539 34,000  Level FlightAware
Thu 10:45:34 PM 33.2150 -85.2830 339° North 471 542 34,000  Level FlightAware
Thu 10:46:09 PM 33.2880 -85.3170 339° North 471 542 34,000  Level FlightAware
Thu 10:46:58 PM 33.3700 -85.3550 339° North 471 542 34,000  Level FlightAware
Thu 10:47:57 PM 33.5123 -85.4208 339° North 472 543 34,000  Level FlightAware
Thu 10:48:40 PM 33.5880 -85.4560 339° North 524 603 34,000  Level FlightAware
Thu 10:50:53 PM 33.8694 -85.5877 339° North 474 545 34,000  Level FlightAware
Thu 10:51:46 PM 33.9775 -85.6385 339° North 476 548 34,000  Level FlightAware
Thu 10:52:29 PM 34.0654 -85.6799 339° North 474 545 34,000  Level FlightAware
Thu 10:53:02 PM 34.1319 -85.7113 339° North 472 543 34,000  Level FlightAware
Thu 10:53:33 PM 34.1949 -85.7412 339° North 472 543 34,000  Level FlightAware
Thu 10:54:04 PM 34.2578 -85.7710 339° North 472 543 34,000  Level FlightAware
Thu 10:54:45 PM 34.3410 -85.8105 339° North 473 544 34,000  Level FlightAware
Thu 10:55:15 PM 34.4036 -85.8404 338° Northwest 475 547 34,000  Level FlightAware
Thu 10:55:46 PM 34.4670 -85.8705 339° North 478 550 34,000  Level FlightAware
Thu 10:56:18 PM 34.5323 -85.9016 339° North 479 551 34,000  Level FlightAware
Thu 10:56:51 PM 34.6008 -85.9344 338° Northwest 481 554 34,000  Level FlightAware
Thu 10:57:22 PM 34.6647 -85.9650 339° North 482 555 34,000  Level FlightAware
Thu 10:58:08 PM 34.7570 -86.0090 339° North 482 555 34,000  Level FlightAware
Thu 10:58:35 PM 34.8172 -86.0382 338° Northwest 482 555 34,000  Level FlightAware
Thu 10:59:08 PM 34.8854 -86.0711 338° Northwest 480 552 34,000  Level FlightAware
Thu 10:59:39 PM 34.9485 -86.1016 338° Northwest 479 551 34,000  Level FlightAware
Thu 11:00:09 PM 35.0115 -86.1321 338° Northwest 484 557 34,000  Level FlightAware
Thu 11:00:45 PM 35.0851 -86.1678 338° Northwest 487 560 34,000  Level FlightAware
Thu 11:00:56 PM 35.1095 -86.1789 340° North 494 568 34,000  Level FlightAware
Thu 11:01:08 PM 35.1358 -86.1869 346° North 506 582 34,000  Level FlightAware
Thu 11:01:19 PM 35.1615 -86.1904 354° North 518 596 34,000  Level FlightAware
Thu 11:01:29 PM 35.1869 -86.1900 North 529 609 34,000 -632 Level FlightAware
Thu 11:01:38 PM 35.2087 -86.1872 North 535 616 33,800 -1,143 Descending FlightAware
Thu 11:01:50 PM 35.2377 -86.1819 North 537 618 33,600 -1,067 Descending FlightAware
Thu 11:02:23 PM 35.3185 -86.1640 10° North 535 616 33,000 -1,143 Descending FlightAware
Thu 11:02:53 PM 35.3915 -86.1479 10° North 532 612 32,400 -1,200 Descending FlightAware
Thu 11:03:23 PM 35.4646 -86.1327 10° North 530 610 31,800 -1,180 Descending FlightAware
Thu 11:03:54 PM 35.5388 -86.1175 North 527 606 31,200 -750 Descending FlightAware
Thu 11:04:27 PM 35.6185 -86.1012 North 524 603 31,000 -188 Descending FlightAware
Thu 11:04:58 PM 35.6915 -86.0861 10° North 524 603 31,000  Level FlightAware
Thu 11:05:36 PM 35.7823 -86.0672 10° North 524 603 31,000  Level FlightAware
Thu 11:06:19 PM 35.8872 -86.0455 10° North 524 603 31,000  Level FlightAware
Thu 11:06:50 PM 35.9609 -86.0304 North 531 611 31,000  Level FlightAware
Thu 11:07:20 PM 36.0342 -86.0152 10° North 531 611 31,000  Level FlightAware
Thu 11:07:50 PM 36.1074 -85.9998 10° North 533 613 31,000  Level FlightAware
Thu 11:08:21 PM 36.1832 -85.9841 North 535 616 31,000  Level FlightAware
Thu 11:08:52 PM 36.2590 -85.9681 10° North 533 613 31,000  Level FlightAware
Thu 11:09:23 PM 36.3346 -85.9523 10° North 536 617 31,000 -492 Level FlightAware
Thu 11:09:53 PM 36.4082 -85.9368 10° North 539 620 30,500 -1,839 Descending FlightAware
Thu 11:10:25 PM 36.4862 -85.9207 North 541 623 29,100 -2,806 Descending FlightAware
Thu 11:10:55 PM 36.5616 -85.9044 10° North 541 623 27,600 -2,557 Descending FlightAware
Thu 11:11:26 PM 36.6344 -85.8883 10° North 508 585 26,500 -2,762 Descending FlightAware
Thu 11:11:58 PM 36.7066 -85.8732 10° North 490 564 24,700 -2,877 Descending FlightAware
Thu 11:12:39 PM 36.7940 -85.8551 North 457 526 23,000 -2,882 Descending FlightAware
Thu 11:13:40 PM 36.9161 -85.8292 10° North 430 495 19,800 -2,864 Descending FlightAware
Thu 11:14:07 PM 36.9695 -85.8195 North 409 471 18,800 -2,063 Descending FlightAware
Thu 11:14:12 PM 36.9787 -85.8197 359° North 401 461 18,700 -1,875 Descending FlightAware
Thu 11:14:23 PM 36.9976 -85.8231 352° North 388 447 18,300 -2,160 Descending FlightAware
Thu 11:14:37 PM 37.0212 -85.8328 342° North 377 434 17,800 -2,045 Descending FlightAware
Thu 11:15:07 PM 37.0670 -85.8540 340° North 372 428 16,800 -2,031 Descending FlightAware
Thu 11:15:42 PM 37.1250 -85.8820 339° North 370 426 15,600 -2,103 Descending FlightAware
Thu 11:16:44 PM 37.2280 -85.9300 340° North 373 429 13,400 -1,603 Descending FlightAware
Thu 11:17:53 PM 37.3310 -85.9780 340° North 366 421 12,100 -1,188 Descending FlightAware
Thu 11:18:25 PM 37.3830 -86.0020 340° North 347 399 11,400 -450 Descending FlightAware
Thu 11:19:13 PM 37.4470 -86.0320 340° North 347 399 11,500 79 Climbing FlightAware
Thu 11:19:41 PM 37.4830 -86.0500 338° Northwest 347 399 11,500  Level FlightAware
Thu 11:19:58 PM 37.5180 -86.0660 340° North 347 399 11,500 -701 Level FlightAware
Thu 11:20:58 PM 37.6100 -86.0720 357° North 377 434 10,600 -555 Descending FlightAware
Thu 11:21:57 PM 37.7060 -86.0130 26° Northeast 359 413 10,400 -511 Descending FlightAware
Thu 11:22:32 PM 37.7610 -85.9990 11° North 353 406 9,800 -1,125 Descending FlightAware
Thu 11:23:01 PM 37.8060 -85.9870 12° North 347 399 9,200 -1,238 Descending FlightAware
Thu 11:23:35 PM 37.8610 -85.9730 11° North 336 387 8,500 -1,304 Descending FlightAware
Thu 11:23:47 PM 37.8770 -85.9690 11° North 332 382 8,200 -1,105 Descending FlightAware
Thu 11:24:13 PM 37.9100 -85.9610 11° North 331 381 7,800 -1,059 Descending FlightAware
Thu 11:24:38 PM 37.9480 -85.9420 22° Northeast 330 380 7,300 -1,200 Descending FlightAware
Thu 11:25:13 PM 37.9910 -85.9180 24° Northeast 316 364 6,600 -873 Descending FlightAware
Thu 11:25:33 PM 38.0220 -85.9000 25° Northeast 315 362 6,500 -150 Descending FlightAware
Thu 11:25:53 PM 38.0470 -85.8840 27° Northeast 294 338 6,500  Level FlightAware
Thu 11:26:18 PM 38.0730 -85.8690 24° Northeast 294 338 6,500  Level FlightAware
Thu 11:26:56 PM 38.1200 -85.8390 27° Northeast 250 288 6,500  Level FlightAware
Thu 11:27:17 PM 38.1420 -85.8360 North 234 269 6,500 -125 Level FlightAware
Thu 11:27:44 PM 38.1710 -85.8320 North 228 262 6,400 -109 Descending FlightAware
Thu 11:28:12 PM 38.1990 -85.8390 349° North 213 245 6,400 100 Level FlightAware
Thu 11:28:44 PM 38.2280 -85.8540 338° Northwest 209 241 6,500 100 Climbing FlightAware
Thu 11:29:12 PM 38.2540 -85.8660 340° North 207 238 6,500  Level FlightAware
Thu 11:29:36 PM 38.2750 -85.8750 341° North 193 222 6,500  Level FlightAware
Thu 11:30:12 PM 38.3050 -85.8870 343° North 188 216 6,500  Level FlightAware
Thu 11:30:42 PM 38.3310 -85.8960 345° North 189 217 6,500  Level FlightAware
Thu 11:31:14 PM 38.3580 -85.9060 344° North 189 217 6,500  Level FlightAware
Thu 11:31:42 PM 38.3810 -85.9150 343° North 185 213 6,500  Level FlightAware
Thu 11:32:14 PM 38.4080 -85.9250 344° North 188 216 6,500 -281 Level FlightAware
Thu 11:32:46 PM 38.4350 -85.9340 345° North 184 212 6,200 -692 Descending FlightAware
Thu 11:33:06 PM 38.4510 -85.9390 346° North 187 215 5,900 -1,000 Descending FlightAware
Thu 11:33:40 PM 38.4770 -85.9110 40° Northeast 250 288 5,300 -1,111 Descending FlightAware
Thu 11:34:00 PM 38.4820 -85.8830 77° East 251 289 4,900 -1,200 Descending FlightAware
Thu 11:34:10 PM 38.4820 -85.8680 90° East 254 292 4,700 -1,435 Descending FlightAware
Thu 11:34:46 PM 38.4590 -85.8350 132° Southeast 192 221 3,800 -1,091 Descending FlightAware
Thu 11:35:16 PM 38.4350 -85.8300 171° South 184 212 3,500 -300 Descending FlightAware
Thu 11:35:46 PM 38.4080 -85.8230 169° South 195 224 3,500  Level FlightAware
Thu 11:36:08 PM 38.3880 -85.8150 163° South 198 228 3,500  Level FlightAware
Thu 11:36:28 PM 38.3710 -85.8090 165° South 199 229 3,500  Level FlightAware
Thu 11:36:48 PM 38.3530 -85.8030 165° South 196 226 3,500  Level FlightAware
Thu 11:37:20 PM 38.3250 -85.7940 166° South 195 224 3,500 -281 Level FlightAware
Thu 11:37:52 PM 38.2980 -85.7850 165° South 191 220 3,200 -750 Descending FlightAware
Thu 11:38:08 PM 38.2830 -85.7800 165° South 187 215 2,900 -750 Descending FlightAware
Thu 11:38:32 PM 38.2650 -85.7740 165° South 180 207 2,700 200 Descending FlightAware
Thu 11:39:08 PM 38.2340 -85.7640 166° South 195 224 3,100 643 Climbing FlightAware
Thu 11:39:28 PM 38.2150 -85.7590 168° South 194 223 3,300 474 Climbing FlightAware
Thu 11:39:46 PM 38.2000 -85.7580 177° South 198 228 3,400 194 Climbing FlightAware
Thu 11:40:30 PM 38.1750 -85.7850 220° Southwest 164 189 3,500  Climbing FlightAware
Thu 11:40:46 PM 38.1680 -85.7980 236° Southwest 171 197 3,400 -130 Descending FlightAware
Thu 11:41:16 PM 38.1550 -85.8250 239° Southwest 181 208 3,400  Level FlightAware
Thu 11:41:44 PM 38.1430 -85.8500 239° Southwest 181 208 3,400  Level FlightAware
Thu 11:42:12 PM 38.1310 -85.8770 241° Southwest 183 211 3,400  Level FlightAware
Thu 11:42:32 PM 38.1240 -85.8940 242° Southwest 183 211 3,400  Level FlightAware
Thu 11:42:40 PM 38.1220 -85.9030 254° West 176 203 3,400  Level FlightAware
Thu 11:43:12 PM 38.1300 -85.9340 288° West 175 201 3,400 305 Level FlightAware
Thu 11:43:39 PM 38.1450 -85.9550 312° West 205 236 3,700 724 Climbing FlightAware
Thu 11:44:10 PM 38.1740 -85.9600 352° North 202 232 4,100 824 Climbing FlightAware
Thu 11:44:30 PM 38.1930 -85.9620 355° North 190 219 4,400 409 Climbing FlightAware
Thu 11:44:54 PM 38.2140 -85.9640 356° North 188 216 4,400  Level FlightAware
Thu 11:45:34 PM 38.2480 -85.9680 355° North 186 214 4,400  Level FlightAware
Thu 11:45:54 PM 38.2630 -85.9750 340° North 150 173 4,400  Level FlightAware
Thu 11:46:18 PM 38.2700 -85.9930 296° West 142 163 4,400  Level FlightAware
Thu 11:46:50 PM 38.2770 -86.0170 290° West 145 167 4,400  Level FlightAware
Thu 11:47:23 PM 38.2860 -86.0450 292° West 148 170 4,400  Level FlightAware
Thu 11:47:51 PM 38.2930 -86.0670 292° West 149 171 4,400  Level FlightAware
Thu 11:48:11 PM 38.3070 -86.0750 336° Northwest 193 222 4,400  Level FlightAware
Thu 11:48:44 PM 38.3330 -86.0490 38° Northeast 258 297 4,400  Level FlightAware
Thu 11:49:11 PM 38.3390 -86.0080 79° East 264 304 4,400  Level FlightAware
Thu 11:49:39 PM 38.3450 -85.9630 80° East 265 305 4,400  Level FlightAware
Thu 11:49:49 PM 38.3460 -85.9460 86° East 269 310 4,400  Level FlightAware
Thu 11:50:31 PM 38.3190 -85.9010 127° Southeast 234 269 4,400  Level FlightAware
Thu 11:50:55 PM 38.2950 -85.8840 151° Southeast 232 267 4,400  Level FlightAware
Thu 11:51:19 PM 38.2740 -85.8680 149° Southeast 231 266 4,400  Level FlightAware
Thu 11:51:48 PM 38.2470 -85.8480 150° Southeast 229 264 4,400  Level FlightAware
Thu 11:52:08 PM 38.2290 -85.8350 150° Southeast 230 265 4,400 154 Level FlightAware
Thu 11:52:27 PM 38.2110 -85.8220 150° Southeast 225 259 4,500  Climbing FlightAware
Thu 11:52:45 PM 38.1950 -85.8140 159° South 194 223 4,400 -107 Descending FlightAware
Thu 11:53:23 PM 38.1650 -85.8260 197° South 172 198 4,400  Level FlightAware
Thu 11:53:51 PM 38.1450 -85.8350 199° South 171 197 4,400  Level FlightAware
Thu 11:54:17 PM 38.1240 -85.8430 197° South 190 219 4,400  Level FlightAware
Thu 11:54:45 PM 38.0980 -85.8360 168° South 209 241 4,400  Level FlightAware
Thu 11:55:13 PM 38.0730 -85.8270 164° South 208 239 4,400  Level FlightAware
Thu 11:55:45 PM 38.0420 -85.8170 166° South 206 237 4,400 107 Level FlightAware
Thu 11:56:09 PM 38.0230 -85.8100 164° South 189 217 4,500  Climbing FlightAware
Thu 11:56:35 PM 37.9990 -85.8020 165° South 188 216 4,400 -103 Descending FlightAware
Thu 11:57:07 PM 37.9730 -85.7920 163° South 190 219 4,400 97 Level FlightAware
Thu 11:57:37 PM 37.9470 -85.7830 165° South 187 215 4,500  Climbing FlightAware
Thu 11:58:01 PM 37.9270 -85.7760 165° South 188 216 4,400  Descending FlightAware
Thu 11:58:29 PM 37.9090 -85.7530 135° Southeast 228 262 4,500  Climbing FlightAware
Thu 11:58:58 PM 37.9130 -85.7140 83° East 235 270 4,400 -100 Descending FlightAware
Thu 11:59:29 PM 37.9320 -85.6820 53° Northeast 212 244 4,400  Level FlightAware
Thu 11:59:55 PM 37.9550 -85.6740 15° North 186 214 4,400 -107 Level FlightAware
Fri 12:00:25 AM 37.9790 -85.6800 349° North 174 200 4,300 -517 Descending FlightAware
Fri 12:00:53 AM 38.0000 -85.6870 345° North 166 191 3,900 -783 Descending FlightAware
Fri 12:01:11 AM 38.0130 -85.6910 346° North 157 181 3,700 -667 Descending FlightAware
Fri 12:01:38 AM 38.0320 -85.6980 344° North 153 176 3,400 -724 Descending FlightAware
Fri 12:02:09 AM 38.0530 -85.7050 345° North 151 174 3,000 -842 Descending FlightAware
Fri 12:02:35 AM 38.0690 -85.7100 346° North 126 145 2,600 -735 Descending FlightAware
Fri 12:02:58 AM 38.0810 -85.7140 345° North 111 128 2,400 -500 Descending FlightAware
Fri 12:03:23 AM 38.0940 -85.7180 346° North 121 139 2,200 -588 Descending FlightAware
Fri 12:03:49 AM 38.1080 -85.7230 344° North 129 148 1,900 -724 Descending FlightAware
Fri 12:04:21 AM 38.1270 -85.7290 346° North 132 152 1,500 -737 Descending FlightAware
Fri 12:04:46 AM 38.1420 -85.7340 345° North 133 153 1,200 -732 Descending FlightAware
Fri 12:05:02 AM 38.1520 -85.7370 347° North 137 158 1,000 -750 Descending FlightAware
Fri 12:05:10 AM 38.1560 -85.7390 339° North 137 158 900 -182 Descending FlightAware
Fri 12:05:35 AM 38.1700 -85.7430 347° North 137 158 900  Level FlightAware

Login

Don't have an account? Register now (free) for customized features, flight alerts, and more!